Time;durP1;ratioP1;P1;durP2;ratioP2;P2;SDS_P1;SDS_P2;PMS_P1;PMS_P2;Temp;Humidity;BMP_temperature;BMP_pressure;BME280_temperature;BME280_humidity;BME280_pressure;Samples;Min_cycle;Max_cycle;Signal;HPM_P1;HPM_P2
2020/12/16 00:00:27;;;;;;;22.23;15.55;;;19.40;59.70;;;;;;5022883;28;20473;-56
2020/12/16 00:02:53;;;;;;;26.00;12.25;;;19.30;59.90;;;;;;5025334;28;20062;-58
2020/12/16 00:05:19;;;;;;;21.23;14.55;;;19.40;61.90;;;;;;5029759;28;20050;-53
2020/12/16 00:07:45;;;;;;;19.80;13.70;;;19.30;60.50;;;;;;5028083;28;20048;-52
2020/12/16 00:10:10;;;;;;;23.10;16.35;;;19.30;60.80;;;;;;5028822;28;20037;-53
2020/12/16 00:12:38;;;;;;;17.42;13.73;;;19.30;59.60;;;;;;5038227;28;20378;-56
2020/12/16 00:15:25;;;;;;;19.67;15.45;;;19.30;61.80;;;;;;5029465;28;20041;-57
2020/12/16 00:17:51;;;;;;;19.60;14.50;;;19.30;60.40;;;;;;5027860;28;20064;-58
2020/12/16 00:20:17;;;;;;;19.52;13.65;;;19.30;60.50;;;;;;5030362;28;20458;-58
2020/12/16 00:22:43;;;;;;;20.77;14.85;;;19.30;61.50;;;;;;5028843;28;20124;-57
2020/12/16 00:25:09;;;;;;;20.60;17.48;;;19.20;61.00;;;;;;5031871;28;20755;-54
2020/12/16 00:27:35;;;;;;;21.27;15.73;;;19.10;59.80;;;;;;5031191;28;20116;-57
2020/12/16 00:30:01;;;;;;;20.92;13.60;;;19.10;61.00;;;;;;5027218;28;20481;-56
2020/12/16 00:32:26;;;;;;;19.52;12.30;;;19.10;62.60;;;;;;5023427;28;20141;-57
2020/12/16 00:34:52;;;;;;;16.63;13.07;;;19.10;62.90;;;;;;5025462;28;20042;-55
2020/12/16 00:37:39;;;;;;;16.25;12.50;;;19.10;62.20;;;;;;5027237;28;20401;-55
2020/12/16 00:40:25;;;;;;;16.58;14.15;;;19.20;63.40;;;;;;5023025;28;20045;-57
2020/12/16 00:43:10;;;;;;;19.08;14.63;;;19.10;62.00;;;;;;5024187;28;20045;-55
2020/12/16 00:45:36;;;;;;;16.38;13.75;;;19.20;61.80;;;;;;5028509;28;20054;-57
2020/12/16 00:48:02;;;;;;;9.50;8.10;;;19.20;62.50;;;;;;5022238;28;20051;-56
2020/12/16 00:50:27;;;;;;;13.95;10.73;;;19.30;64.20;;;;;;5026894;28;20045;-55
2020/12/16 00:53:13;;;;;;;10.55;8.57;;;19.40;64.40;;;;;;5022059;28;20041;-58
2020/12/16 00:55:59;;;;;;;8.43;5.55;;;19.40;63.50;;;;;;5022577;28;20505;-58
2020/12/16 00:58:25;;;;;;;10.43;6.38;;;19.50;64.60;;;;;;5025089;28;20037;-58
2020/12/16 01:00:50;;;;;;;12.07;7.57;;;19.60;64.40;;;;;;5025721;28;20030;-56
2020/12/16 01:03:16;;;;;;;11.18;9.20;;;19.70;63.50;;;;;;5022532;28;20103;-58
2020/12/16 01:06:02;;;;;;;17.65;13.43;;;19.80;63.50;;;;;;5024382;28;20477;-58
2020/12/16 01:08:27;;;;;;;11.40;7.55;;;19.90;61.80;;;;;;5026473;28;20043;-58
2020/12/16 01:10:53;;;;;;;25.98;17.02;;;19.90;63.30;;;;;;5027749;28;20037;-58
2020/12/16 01:13:19;;;;;;;13.30;10.68;;;20.00;60.40;;;;;;5024968;28;20462;-57
2020/12/16 01:16:04;;;;;;;11.35;9.38;;;20.00;61.10;;;;;;5022667;28;20076;-58
2020/12/16 01:18:30;;;;;;;15.98;12.07;;;20.00;62.20;;;;;;5020027;28;20038;-52
2020/12/16 01:20:56;;;;;;;14.50;11.35;;;20.00;63.10;;;;;;5023120;28;20045;-57
2020/12/16 01:23:41;;;;;;;22.35;17.20;;;20.10;62.10;;;;;;5019902;28;20096;-52
2020/12/16 01:26:07;;;;;;;15.35;11.50;;;20.00;59.40;;;;;;5026187;28;20037;-51
2020/12/16 01:28:33;;;;;;;10.30;8.40;;;20.00;62.20;;;;;;5021285;28;20037;-51
2020/12/16 01:31:18;;;;;;;13.95;11.07;;;20.00;62.80;;;;;;5018840;28;20410;-56
2020/12/16 01:33:44;;;;;;;8.02;6.00;;;20.00;62.60;;;;;;5023586;28;20039;-53
2020/12/16 01:36:10;;;;;;;20.75;14.68;;;20.00;63.10;;;;;;5024066;28;20405;-53
2020/12/16 01:38:36;;;;;;;14.30;11.35;;;20.00;60.50;;;;;;5022462;28;20159;-48
2020/12/16 01:41:06;;;;;;;21.00;15.68;;;20.00;62.20;;;;;;5021623;28;20128;-48
2020/12/16 01:43:36;;;;;;;19.83;15.60;;;20.00;59.40;;;;;;5023774;28;20041;-51
2020/12/16 01:46:02;;;;;;;13.68;11.55;;;20.00;60.80;;;;;;5025611;28;20049;-51
2020/12/16 01:48:27;;;;;;;22.70;11.75;;;20.00;61.20;;;;;;5022264;28;20041;-50
2020/12/16 01:50:53;;;;;;;21.95;15.88;;;19.90;61.10;;;;;;5023321;28;20401;-56
2020/12/16 01:53:19;;;;;;;16.88;13.05;;;19.90;59.70;;;;;;5028151;28;20037;-50
2020/12/16 01:55:46;;;;;;;8.43;6.57;;;19.90;61.70;;;;;;5020237;28;20426;-57
2020/12/16 01:58:31;;;;;;;21.73;15.68;;;19.90;64.30;;;;;;5023667;28;20096;-51
2020/12/16 02:00:57;;;;;;;17.88;14.35;;;20.00;59.60;;;;;;5026456;28;20042;-57
2020/12/16 02:03:23;;;;;;;12.70;7.82;;;19.90;59.20;;;;;;5010672;28;20034;-56
2020/12/16 02:05:51;;;;;;;19.23;14.82;;;19.80;62.70;;;;;;5020123;28;20544;-56
2020/12/16 02:08:19;;;;;;;13.27;10.52;;;19.80;60.40;;;;;;5040608;28;20107;-57
2020/12/16 02:11:05;;;;;;;14.18;11.80;;;19.80;61.30;;;;;;5020835;28;20128;-50
2020/12/16 02:13:51;;;;;;;16.40;14.10;;;19.80;61.30;;;;;;5021237;28;20096;-54
2020/12/16 02:16:16;;;;;;;14.43;10.93;;;19.80;59.80;;;;;;5022536;28;20466;-50
2020/12/16 02:18:46;;;;;;;11.65;9.65;;;19.70;61.50;;;;;;5020910;28;20068;-54
2020/12/16 02:21:33;;;;;;;11.73;9.32;;;19.80;62.90;;;;;;5020776;28;20121;-55
2020/12/16 02:24:06;;;;;;;15.15;12.32;;;19.90;61.80;;;;;;5024926;28;20376;-53
2020/12/16 02:26:35;;;;;;;;;;;19.80;61.00;;;;;;5024375;28;20044;-51
2020/12/16 02:29:01;;;;;;;13.82;10.70;;;19.80;59.80;;;;;;5036837;28;19971;-57
2020/12/16 02:31:32;;;;;;;12.43;10.45;;;19.70;60.20;;;;;;5023216;28;20034;-54
2020/12/16 02:33:58;;;;;;;7.78;6.97;;;19.80;61.80;;;;;;5026098;28;20034;-55
2020/12/16 02:36:23;;;;;;;8.95;6.82;;;19.80;62.80;;;;;;5023133;28;20067;-51
2020/12/16 02:38:51;;;;;;;10.98;9.07;;;19.90;62.60;;;;;;5024633;28;20029;-58
2020/12/16 02:41:18;;;;;;;14.90;9.07;;;19.90;61.00;;;;;;5022333;28;20058;-56
2020/12/16 02:44:03;;;;;;;14.55;11.65;;;19.90;60.40;;;;;;5011053;28;20046;-55
2020/12/16 02:46:29;;;;;;;11.90;8.88;;;19.70;58.20;;;;;;5026832;28;20389;-56
2020/12/16 02:48:55;;;;;;;14.00;12.43;;;19.70;61.20;;;;;;5018346;28;20045;-59
2020/12/16 02:51:20;;;;;;;9.18;7.10;;;19.90;60.80;;;;;;5021915;28;20049;-58
2020/12/16 02:54:06;;;;;;;12.55;9.65;;;20.00;62.30;;;;;;5026036;28;20041;-57
2020/12/16 02:56:32;;;;;;;9.88;8.68;;;20.00;60.70;;;;;;5022731;28;20409;-58
2020/12/16 02:58:58;;;;;;;8.15;6.93;;;20.00;60.70;;;;;;5024667;28;20037;-56
2020/12/16 03:01:23;;;;;;;13.38;10.90;;;20.00;60.90;;;;;;5023356;28;20057;-59
2020/12/16 03:03:49;;;;;;;13.65;11.10;;;20.00;59.20;;;;;;5022760;28;20036;-57
2020/12/16 03:06:15;;;;;;;10.25;8.85;;;20.00;58.70;;;;;;5021980;28;20037;-52
2020/12/16 03:08:42;;;;;;;11.80;9.50;;;19.90;60.30;;;;;;5020772;28;20099;-52
2020/12/16 03:11:07;;;;;;;15.98;12.15;;;20.00;60.20;;;;;;5039537;28;20044;-56
2020/12/16 03:13:33;;;;;;;17.20;13.00;;;19.90;59.10;;;;;;5020922;28;20025;-57
2020/12/16 03:15:59;;;;;;;15.60;13.05;;;19.90;57.20;;;;;;5018521;28;20388;-57
2020/12/16 03:18:24;;;;;;;16.15;13.77;;;19.70;57.40;;;;;;5017790;28;20033;-54
2020/12/16 03:20:50;;;;;;;14.88;12.07;;;19.60;58.00;;;;;;5022999;28;20030;-54
2020/12/16 03:23:16;;;;;;;14.82;12.20;;;19.50;59.80;;;;;;5025551;28;20045;-58
2020/12/16 03:26:07;;;;;;;12.68;10.35;;;19.40;59.50;;;;;;5020732;28;20042;-54
2020/12/16 03:28:53;;;;;;;15.52;11.88;;;19.30;59.60;;;;;;5020773;28;20046;-56
2020/12/16 03:31:39;;;;;;;14.05;11.70;;;19.20;60.70;;;;;;5010894;28;20053;-51
2020/12/16 03:34:04;;;;;;;14.40;11.40;;;19.20;59.90;;;;;;5021308;28;20034;-51
2020/12/16 03:36:50;;;;;;;10.00;8.18;;;19.20;60.20;;;;;;5021544;28;20053;-49
2020/12/16 03:39:16;;;;;;;13.07;10.35;;;19.30;62.20;;;;;;5019006;28;20997;-54
2020/12/16 03:41:41;;;;;;;15.27;12.02;;;19.30;60.30;;;;;;5039854;28;20036;-55
2020/12/16 03:44:27;;;;;;;17.55;12.70;;;19.20;59.90;;;;;;5021453;28;20057;-54
2020/12/16 03:46:53;;;;;;;16.05;11.68;;;19.20;59.00;;;;;;5020666;28;20049;-58
2020/12/16 03:49:19;;;;;;;13.25;10.57;;;19.10;60.00;;;;;;5022242;28;20065;-54
2020/12/16 03:51:51;;;;;;;16.30;11.57;;;19.20;60.90;;;;;;5017955;28;20042;-54
2020/12/16 03:54:17;;;;;;;14.60;11.88;;;19.10;61.30;;;;;;5016070;28;20037;-50
2020/12/16 03:57:03;;;;;;;10.50;8.38;;;19.10;59.30;;;;;;5021007;28;20099;-48
2020/12/16 03:59:29;;;;;;;15.15;10.98;;;19.00;62.90;;;;;;5018014;28;20034;-51
2020/12/16 04:01:55;;;;;;;15.48;11.10;;;19.10;60.50;;;;;;5022575;28;20034;-54
2020/12/16 04:04:20;;;;;;;16.33;11.43;;;19.10;61.00;;;;;;5022465;28;20485;-50
2020/12/16 04:06:46;;;;;;;15.32;10.55;;;19.00;60.20;;;;;;5015435;28;20042;-56
2020/12/16 04:09:32;;;;;;;15.82;12.10;;;19.10;60.30;;;;;;5023243;28;20045;-56
2020/12/16 04:11:57;;;;;;;16.75;12.07;;;19.10;60.20;;;;;;5019559;28;20053;-56
2020/12/16 04:14:23;;;;;;;20.45;13.85;;;19.00;59.10;;;;;;5021011;28;20102;-54
2020/12/16 04:16:49;;;;;;;12.70;9.63;;;18.90;59.20;;;;;;5015519;28;20049;-54
2020/12/16 04:19:15;;;;;;;17.50;12.32;;;18.90;62.50;;;;;;5019922;28;20042;-54
2020/12/16 04:21:40;;;;;;;13.73;9.75;;;19.00;59.50;;;;;;5019768;28;20038;-54
2020/12/16 04:24:06;;;;;;;15.43;11.18;;;18.90;60.70;;;;;;5021415;28;20046;-56
2020/12/16 04:26:32;;;;;;;17.27;11.75;;;18.90;60.60;;;;;;5020007;28;20107;-58
2020/12/16 04:29:17;;;;;;;11.05;9.10;;;18.90;59.30;;;;;;5019972;28;20121;-56
2020/12/16 04:31:43;;;;;;;16.23;11.45;;;18.80;61.50;;;;;;5022537;28;20381;-56
2020/12/16 04:34:09;;;;;;;15.50;11.43;;;18.80;60.60;;;;;;5035675;28;20120;-58
2020/12/16 04:36:34;;;;;;;15.60;11.57;;;18.80;61.10;;;;;;5022021;28;20639;-57
2020/12/16 04:39:20;;;;;;;16.65;11.43;;;18.80;60.60;;;;;;5020735;28;20081;-57
2020/12/16 04:41:49;;;;;;;18.23;11.98;;;18.80;61.90;;;;;;5020744;28;20072;-57
2020/12/16 04:44:15;;;;;;;18.15;12.88;;;18.80;60.40;;;;;;5022119;28;20064;-56
2020/12/16 04:46:41;;;;;;;16.45;11.43;;;18.70;60.70;;;;;;5019673;28;20144;-54
2020/12/16 04:49:08;;;;;;;13.38;10.15;;;18.70;61.20;;;;;;5021007;28;20034;-55
2020/12/16 04:51:34;;;;;;;16.88;11.63;;;18.60;62.30;;;;;;5019800;28;20051;-55
2020/12/16 04:54:00;;;;;;;17.30;12.48;;;18.80;60.20;;;;;;5023873;28;20046;-57
2020/12/16 04:56:46;;;;;;;24.83;14.30;;;18.80;61.10;;;;;;5023569;28;20045;-53
2020/12/16 04:59:32;;;;;;;17.25;11.50;;;18.80;59.70;;;;;;5011447;28;20057;-56
2020/12/16 05:01:58;;;;;;;18.38;11.73;;;18.70;61.00;;;;;;5024203;28;20030;-55
2020/12/16 05:04:24;;;;;;;19.73;13.07;;;18.70;60.10;;;;;;5026437;28;20489;-57
2020/12/16 05:07:26;;;;;;;12.90;10.02;;;18.60;59.40;;;;;;5009046;28;20049;-52
2020/12/16 05:09:52;;;;;;;18.60;13.35;;;18.50;60.80;;;;;;5023667;28;20038;-54
2020/12/16 05:12:17;;;;;;;18.73;11.38;;;18.60;59.40;;;;;;5024414;28;20033;-55
2020/12/16 05:15:03;;;;;;;19.08;13.13;;;18.50;61.00;;;;;;5025659;28;20041;-51
2020/12/16 05:17:29;;;;;;;21.85;14.27;;;18.50;60.60;;;;;;5024343;28;20485;-55
2020/12/16 05:19:55;;;;;;;20.55;13.25;;;18.40;59.20;;;;;;5022970;28;20033;-58
2020/12/16 05:22:21;;;;;;;16.95;12.93;;;18.20;60.30;;;;;;5025020;28;20037;-58
2020/12/16 05:25:07;;;;;;;15.73;11.27;;;18.10;59.90;;;;;;5023780;28;20045;-55
2020/12/16 05:27:53;;;;;;;14.27;10.23;;;18.10;61.70;;;;;;5023558;28;20045;-54
2020/12/16 05:30:18;;;;;;;16.15;10.68;;;18.10;62.70;;;;;;5024470;28;20349;-51
2020/12/16 05:32:44;;;;;;;10.50;8.23;;;18.30;61.00;;;;;;5022047;28;20041;-56
2020/12/16 05:35:36;;;;;;;15.23;10.77;;;18.30;62.10;;;;;;5009823;28;20057;-54
2020/12/16 05:38:08;;;;;;;14.82;11.02;;;18.10;59.70;;;;;;5023913;28;20533;-53
2020/12/16 05:40:54;;;;;;;15.52;10.77;;;18.00;60.30;;;;;;5023454;28;20491;-48
2020/12/16 05:43:27;;;;;;;13.60;9.27;;;17.90;63.30;;;;;;5022932;28;20065;-55
2020/12/16 05:45:53;;;;;;;13.93;10.70;;;17.90;62.10;;;;;;5023324;28;20042;-58
2020/12/16 05:48:19;;;;;;;12.82;9.55;;;18.00;61.00;;;;;;5021990;28;20045;-55
2020/12/16 05:50:54;;;;;;;15.32;10.55;;;18.10;61.40;;;;;;5023832;28;20120;-58
2020/12/16 05:53:21;;;;;;;15.45;9.80;;;18.10;61.10;;;;;;5022394;28;20053;-57
2020/12/16 05:55:58;;;;;;;15.40;10.45;;;18.10;60.60;;;;;;5024711;28;20075;-58
2020/12/16 05:58:26;;;;;;;13.70;9.43;;;18.10;59.90;;;;;;5023172;28;20052;-58
2020/12/16 06:00:53;;;;;;;13.25;9.95;;;18.20;62.00;;;;;;5020257;28;20045;-58
2020/12/16 06:03:30;;;;;;;16.50;9.02;;;18.30;60.50;;;;;;5023682;28;20076;-58
2020/12/16 06:05:59;;;;;;;8.02;6.13;;;18.30;62.20;;;;;;5024187;28;20535;-58
2020/12/16 06:08:45;;;;;;;11.48;8.57;;;18.30;63.10;;;;;;5022072;28;20068;-54
2020/12/16 06:11:11;;;;;;;14.73;10.38;;;18.30;62.50;;;;;;5005182;28;20482;-57
2020/12/16 06:13:37;;;;;;;10.50;8.48;;;18.50;59.90;;;;;;5024878;28;20037;-57
2020/12/16 06:16:07;;;;;;;13.68;8.88;;;18.40;61.10;;;;;;5024044;28;20040;-58
2020/12/16 06:18:39;;;;;;;16.90;10.65;;;18.50;59.70;;;;;;5023169;28;20115;-53
2020/12/16 06:21:12;;;;;;;13.52;8.43;;;18.50;59.20;;;;;;5023057;28;20119;-48
2020/12/16 06:23:39;;;;;;;15.90;10.25;;;18.50;62.10;;;;;;5036342;28;20048;-52
2020/12/16 06:26:24;;;;;;;13.63;9.98;;;18.50;60.40;;;;;;5021074;28;20050;-52
2020/12/16 06:29:10;;;;;;;12.38;7.22;;;18.50;60.60;;;;;;5008501;28;20130;-54
2020/12/16 06:31:56;;;;;;;16.27;10.57;;;18.40;62.40;;;;;;5021390;28;20091;-54
2020/12/16 06:34:42;;;;;;;12.70;7.40;;;18.30;59.50;;;;;;5009257;28;20478;-57
2020/12/16 06:37:13;;;;;;;12.07;7.53;;;18.40;62.90;;;;;;5005272;28;20072;-55
2020/12/16 06:39:39;;;;;;;17.45;9.68;;;18.40;62.00;;;;;;5006319;28;20042;-55
2020/12/16 06:42:05;;;;;;;15.38;10.90;;;18.40;62.20;;;;;;5024563;28;20441;-54
2020/12/16 06:44:31;;;;;;;15.35;8.48;;;18.40;61.30;;;;;;5023185;28;20073;-56
2020/12/16 06:46:58;;;;;;;11.10;6.13;;;18.40;62.70;;;;;;5022232;28;20746;-49
2020/12/16 06:49:24;;;;;;;17.50;10.25;;;18.50;62.50;;;;;;5022816;28;20374;-51
2020/12/16 06:51:58;;;;;;;22.52;11.75;;;18.50;59.80;;;;;;5020208;28;20040;-48
2020/12/16 06:54:52;;;;;;;16.23;11.02;;;18.50;59.80;;;;;;5020259;28;20156;-48
2020/12/16 06:57:29;;;;;;;20.92;12.18;;;18.40;60.50;;;;;;5019988;28;20489;-49
2020/12/16 06:59:56;;;;;;;18.50;11.10;;;18.40;60.60;;;;;;5021419;28;20041;-51
2020/12/16 07:02:26;;;;;;;16.45;9.60;;;18.40;61.10;;;;;;5020107;28;20041;-48
2020/12/16 07:04:52;;;;;;;19.30;11.30;;;18.40;60.90;;;;;;5021344;28;20049;-51
2020/12/16 07:07:41;;;;;;;14.02;8.32;;;18.30;60.40;;;;;;5006155;28;20047;-54
2020/12/16 07:10:35;;;;;;;9.82;6.72;;;18.40;61.70;;;;;;5020047;28;20040;-53
2020/12/16 07:13:13;;;;;;;16.52;11.18;;;18.50;61.00;;;;;;5020694;28;20543;-57
2020/12/16 07:15:43;;;;;;;12.70;8.82;;;18.60;59.90;;;;;;5021093;28;20116;-58
2020/12/16 07:18:19;;;;;;;16.60;8.40;;;18.60;60.20;;;;;;5022135;28;20045;-57
2020/12/16 07:21:07;;;;;;;16.58;9.63;;;18.60;60.20;;;;;;5015748;28;20041;-57
2020/12/16 07:23:43;;;;;;;12.55;8.57;;;18.50;58.90;;;;;;5022168;28;20076;-57
2020/12/16 07:26:30;;;;;;;15.70;8.85;;;18.50;59.60;;;;;;5007642;28;20168;-53
2020/12/16 07:28:57;;;;;;;12.80;8.25;;;18.50;61.10;;;;;;5020348;28;20038;-57
2020/12/16 07:31:23;;;;;;;15.45;7.45;;;18.60;60.30;;;;;;5018231;28;20041;-58
2020/12/16 07:33:49;;;;;;;15.05;8.98;;;18.60;60.60;;;;;;5019563;28;20442;-58
2020/12/16 07:36:35;;;;;;;14.02;8.75;;;18.70;60.80;;;;;;5018651;28;20073;-57
2020/12/16 07:39:00;;;;;;;13.40;8.82;;;18.70;60.60;;;;;;5003960;28;20065;-58
2020/12/16 07:41:30;;;;;;;10.95;7.32;;;18.70;60.80;;;;;;5004511;28;20128;-59
2020/12/16 07:43:56;;;;;;;15.80;7.63;;;18.80;60.70;;;;;;5033988;28;20452;-59
2020/12/16 07:46:42;;;;;;;11.77;7.38;;;18.80;61.30;;;;;;5002794;28;20058;-59
2020/12/16 07:49:12;;;;;;;15.50;8.02;;;18.80;60.20;;;;;;5018370;28;20044;-58
2020/12/16 07:52:01;;;;;;;11.18;7.97;;;18.80;59.30;;;;;;5019854;28;20103;-58
2020/12/16 07:54:27;;;;;;;8.02;5.93;;;18.80;61.30;;;;;;5020950;28;20458;-57
2020/12/16 07:57:12;;;;;;;14.02;8.77;;;18.80;62.00;;;;;;5019792;28;20045;-57
2020/12/16 07:59:38;;;;;;;12.88;6.95;;;18.80;59.70;;;;;;5020682;28;20496;-57
2020/12/16 08:02:11;;;;;;;12.32;7.07;;;18.80;61.00;;;;;;5018567;28;20457;-56
2020/12/16 08:04:37;;;;;;;;;;;18.80;60.60;;;;;;5022839;28;20050;-57
2020/12/16 08:07:23;;;;;;;9.07;6.30;;;18.90;60.90;;;;;;5006920;28;19924;-57
2020/12/16 08:09:58;;;;;;;16.08;8.50;;;18.90;61.60;;;;;;5023539;28;20049;-56
2020/12/16 08:12:29;;;;;;;10.20;7.30;;;18.90;59.70;;;;;;5020658;28;20042;-57
2020/12/16 08:15:15;;;;;;;10.15;7.13;;;19.00;60.60;;;;;;5022585;28;20120;-54
2020/12/16 08:18:00;;;;;;;10.55;6.95;;;19.00;60.00;;;;;;5019204;28;20141;-53
2020/12/16 08:20:46;;;;;;;14.02;9.88;;;19.00;59.90;;;;;;5020613;28;20485;-48
2020/12/16 08:23:15;;;;;;;11.32;7.95;;;19.00;58.10;;;;;;5020176;28;20057;-55
2020/12/16 08:26:04;;;;;;;12.77;8.50;;;18.80;58.40;;;;;;5014888;28;20091;-48
2020/12/16 08:28:49;;;;;;;15.43;9.65;;;18.80;57.80;;;;;;4966238;28;20153;-47
2020/12/16 08:31:19;;;;;;;14.30;9.60;;;18.60;58.30;;;;;;5000824;28;20108;-54
2020/12/16 08:33:44;;;;;;;18.55;9.90;;;18.60;60.90;;;;;;5005875;28;20034;-48
2020/12/16 08:36:14;;;;;;;20.77;8.77;;;18.50;61.70;;;;;;4999501;28;20037;-50
2020/12/16 08:38:43;;;;;;;23.50;10.88;;;18.50;62.30;;;;;;4999834;28;20100;-52
2020/12/16 08:41:28;;;;;;;18.73;10.10;;;18.40;63.20;;;;;;5002765;28;20056;-52
2020/12/16 08:43:55;;;;;;;26.60;10.98;;;18.40;62.10;;;;;;5004698;28;20042;-59
2020/12/16 08:46:42;;;;;;;18.05;9.73;;;18.40;63.40;;;;;;5003213;28;20081;-48
2020/12/16 08:49:07;;;;;;;14.63;9.07;;;18.30;60.70;;;;;;5003654;28;20120;-52
2020/12/16 08:51:41;;;;;;;14.73;8.73;;;18.30;62.20;;;;;;5002684;28;20462;-52
2020/12/16 08:54:07;;;;;;;;;;;18.30;63.90;;;;;;5003691;28;20034;-55
2020/12/16 08:56:39;;;;;;;20.40;9.48;;;18.40;63.60;;;;;;4999491;28;20432;-56
2020/12/16 08:59:17;;;;;;;21.85;9.65;;;18.60;62.60;;;;;;4998287;28;20073;-56
2020/12/16 09:02:03;;;;;;;17.52;9.75;;;18.60;63.40;;;;;;4999378;28;20045;-57
2020/12/16 09:04:51;;;;;;;19.30;10.23;;;18.70;62.50;;;;;;5000228;28;20058;-49
2020/12/16 09:07:24;;;;;;;17.05;9.88;;;18.80;62.50;;;;;;4982769;28;20152;-53
2020/12/16 09:09:50;;;;;;;17.73;11.68;;;18.80;62.70;;;;;;4995533;28;20099;-51
2020/12/16 09:12:20;;;;;;;21.58;12.88;;;18.80;61.20;;;;;;4997803;28;20457;-56
2020/12/16 09:15:06;;;;;;;23.23;9.40;;;18.70;61.20;;;;;;4999856;28;20050;-51
2020/12/16 09:17:32;;;;;;;19.55;12.40;;;18.80;63.50;;;;;;5000185;28;20033;-56
2020/12/16 09:19:58;;;;;;;12.98;9.82;;;18.70;61.10;;;;;;4999619;28;20391;-56
2020/12/16 09:22:28;;;;;;;22.85;14.45;;;18.80;63.50;;;;;;4996892;28;20041;-53
2020/12/16 09:25:17;;;;;;;22.88;13.95;;;18.70;58.40;;;;;;5000002;28;20515;-56
2020/12/16 09:27:56;;;;;;;22.60;14.65;;;18.60;61.60;;;;;;4997831;28;20100;-56
2020/12/16 09:30:32;;;;;;;20.40;12.70;;;18.60;61.50;;;;;;4999716;28;20042;-50
2020/12/16 09:33:09;;;;;;;20.20;12.50;;;18.70;63.20;;;;;;5000025;28;20046;-54
2020/12/16 09:35:55;;;;;;;23.00;15.55;;;18.70;62.20;;;;;;4991117;28;20344;-54
2020/12/16 09:38:21;;;;;;;21.88;14.23;;;18.80;59.60;;;;;;4999000;28;20049;-51
2020/12/16 09:40:47;;;;;;;20.98;12.70;;;18.60;58.50;;;;;;4996774;28;20038;-55
2020/12/16 09:43:14;;;;;;;23.00;13.63;;;18.50;60.30;;;;;;4999963;28;20402;-48
2020/12/16 09:45:40;;;;;;;18.83;13.68;;;18.30;60.00;;;;;;4996212;28;20053;-56
2020/12/16 09:48:07;;;;;;;19.75;13.63;;;18.30;60.90;;;;;;5009145;28;20725;-56
2020/12/16 09:50:57;;;;;;;24.20;13.88;;;18.30;61.80;;;;;;4982468;28;20504;-52
2020/12/16 09:53:23;;;;;;;15.27;9.60;;;18.40;63.00;;;;;;4995614;28;20068;-51
2020/12/16 09:55:49;;;;;;;22.90;14.68;;;18.40;63.00;;;;;;4996662;28;20046;-56
2020/12/16 09:58:15;;;;;;;23.83;15.15;;;18.40;61.10;;;;;;4979040;28;20064;-56
2020/12/16 10:00:41;;;;;;;22.27;14.70;;;18.30;59.70;;;;;;4986988;28;20038;-56
2020/12/16 10:03:11;;;;;;;25.02;16.35;;;18.30;61.70;;;;;;4988934;28;20678;-54
2020/12/16 10:05:38;;;;;;;25.17;17.88;;;18.40;60.10;;;;;;5009959;28;20532;-52
2020/12/16 10:08:09;;;;;;;23.83;16.63;;;18.30;60.20;;;;;;4998354;28;20042;-48
2020/12/16 10:10:37;;;;;;;23.90;15.57;;;18.20;60.20;;;;;;5000335;28;20050;-55
2020/12/16 10:13:02;;;;;;;22.05;14.70;;;18.20;62.00;;;;;;4998582;28;20111;-56
2020/12/16 10:15:28;;;;;;;25.77;16.73;;;18.20;61.70;;;;;;4999446;28;20759;-56
2020/12/16 10:17:55;;;;;;;25.35;17.90;;;18.20;61.00;;;;;;4992760;28;20124;-56
2020/12/16 10:20:41;;;;;;;22.98;12.90;;;18.30;59.20;;;;;;4991031;28;20176;-54
2020/12/16 10:23:06;;;;;;;19.30;12.40;;;18.20;63.00;;;;;;4997568;28;20183;-54
2020/12/16 10:25:52;;;;;;;24.60;16.42;;;18.10;63.00;;;;;;4997614;28;20054;-55
2020/12/16 10:28:38;;;;;;;24.85;15.63;;;18.20;60.40;;;;;;4996394;28;20054;-51
2020/12/16 10:31:04;;;;;;;25.00;16.55;;;18.20;60.10;;;;;;4994418;28;20152;-54
2020/12/16 10:33:29;;;;;;;25.17;16.25;;;18.30;59.20;;;;;;4993741;28;20038;-54
2020/12/16 10:35:55;;;;;;;23.92;17.45;;;18.20;59.80;;;;;;4993891;28;20115;-55
2020/12/16 10:38:41;;;;;;;19.98;13.88;;;18.10;59.30;;;;;;4996637;28;20054;-56
2020/12/16 10:41:06;;;;;;;26.70;17.65;;;18.20;62.50;;;;;;4992638;28;20834;-54
2020/12/16 10:43:32;;;;;;;22.40;15.88;;;18.20;59.50;;;;;;4991419;28;20087;-52
2020/12/16 10:45:58;;;;;;;21.50;14.85;;;18.20;61.70;;;;;;4985854;28;20053;-58
2020/12/16 10:48:24;;;;;;;18.67;13.13;;;18.30;63.10;;;;;;4992351;28;20034;-57
2020/12/16 10:51:10;;;;;;;23.58;15.73;;;18.30;63.30;;;;;;4993055;28;20046;-56
2020/12/16 10:53:35;;;;;;;22.52;14.30;;;18.50;62.20;;;;;;4983599;28;20042;-56
2020/12/16 10:56:03;;;;;;;19.10;14.15;;;18.60;62.90;;;;;;4998155;28;20686;-56
2020/12/16 10:58:29;;;;;;;21.33;14.10;;;18.80;61.20;;;;;;5000097;28;20429;-54
2020/12/16 11:01:15;;;;;;;21.27;14.75;;;18.70;60.80;;;;;;4999639;28;20089;-56
2020/12/16 11:04:00;;;;;;;26.17;15.85;;;18.70;60.00;;;;;;4978180;28;20054;-58
2020/12/16 11:06:26;;;;;;;22.67;14.27;;;18.40;59.80;;;;;;4991909;28;20508;-58
2020/12/16 11:08:52;;;;;;;20.45;13.90;;;18.30;61.20;;;;;;4996103;28;20038;-56
2020/12/16 11:11:45;;;;;;;27.52;13.35;;;18.40;64.80;;;;;;4994172;28;20089;-57
2020/12/16 11:14:31;;;;;;;19.48;9.93;;;18.60;64.20;;;;;;4993502;28;20042;-59
2020/12/16 11:16:57;;;;;;;24.60;15.50;;;18.70;66.70;;;;;;5000901;28;20668;-56
2020/12/16 11:19:43;;;;;;;28.23;15.70;;;18.70;60.90;;;;;;4997293;28;20104;-55
2020/12/16 11:22:09;;;;;;;28.13;18.17;;;18.80;60.50;;;;;;4998633;28;20033;-57
2020/12/16 11:24:34;;;;;;;33.03;16.13;;;18.70;59.90;;;;;;4994988;28;20044;-57
2020/12/16 11:27:00;;;;;;;30.40;18.45;;;18.50;60.80;;;;;;4996247;28;20076;-56
2020/12/16 11:29:26;;;;;;;27.50;16.83;;;18.30;59.50;;;;;;4994199;28;20582;-56
2020/12/16 11:31:53;;;;;;;28.00;17.38;;;18.30;61.00;;;;;;4997633;28;20458;-55
2020/12/16 11:34:39;;;;;;;29.30;15.30;;;18.30;61.10;;;;;;4996300;28;20049;-54
2020/12/16 11:37:04;;;;;;;32.63;16.95;;;18.10;63.50;;;;;;4997059;28;20053;-58
2020/12/16 11:39:30;;;;;;;32.33;19.40;;;18.20;63.60;;;;;;4999008;28;20034;-58
2020/12/16 11:41:56;;;;;;;28.35;18.17;;;18.20;60.00;;;;;;4998217;28;20073;-56
2020/12/16 11:44:22;;;;;;;29.98;20.17;;;18.00;60.20;;;;;;4998994;28;20050;-50
2020/12/16 11:46:51;;;;;;;31.58;20.48;;;17.90;59.60;;;;;;4998503;28;20054;-49
2020/12/16 11:49:17;;;;;;;28.58;19.80;;;17.70;61.50;;;;;;4999401;28;20045;-54
2020/12/16 11:51:43;;;;;;;27.90;19.25;;;17.70;60.10;;;;;;4998361;28;20045;-50
2020/12/16 11:54:09;;;;;;;28.95;18.73;;;17.60;61.20;;;;;;4998198;28;20744;-50
2020/12/16 11:56:55;;;;;;;31.55;19.83;;;17.70;62.00;;;;;;4983413;28;20128;-51
2020/12/16 11:59:21;;;;;;;30.23;20.13;;;17.60;61.10;;;;;;4998339;28;20095;-53
2020/12/16 12:01:46;;;;;;;32.40;20.55;;;17.40;60.70;;;;;;4986905;28;20474;-53
2020/12/16 12:04:12;;;;;;;27.98;20.95;;;17.20;63.00;;;;;;4991201;28;20041;-53
2020/12/16 12:06:38;;;;;;;29.23;19.42;;;17.10;63.00;;;;;;4994723;28;20042;-50
2020/12/16 12:09:04;;;;;;;27.80;17.50;;;17.10;64.90;;;;;;4996508;28;20100;-56
2020/12/16 12:11:30;;;;;;;29.23;21.30;;;17.10;65.70;;;;;;4996775;28;20054;-55
2020/12/16 12:13:55;;;;;;;33.60;21.50;;;17.20;63.80;;;;;;4997522;28;20077;-53
2020/12/16 12:16:21;;;;;;;27.77;19.73;;;17.00;63.90;;;;;;4995015;28;22355;-55
2020/12/16 12:19:07;;;;;;;29.13;19.60;;;17.00;64.20;;;;;;4993918;28;20421;-56
2020/12/16 12:21:33;;;;;;;29.90;19.20;;;16.90;63.40;;;;;;4994689;28;20046;-54
2020/12/16 12:23:59;;;;;;;27.67;18.88;;;16.80;63.40;;;;;;4992322;28;20034;-56
2020/12/16 12:26:25;;;;;;;25.95;18.50;;;16.60;63.50;;;;;;4993922;28;20034;-56
2020/12/16 12:29:10;;;;;;;26.15;18.75;;;16.70;65.60;;;;;;4990348;28;20058;-58
2020/12/16 12:31:36;;;;;;;26.40;18.45;;;16.80;63.80;;;;;;4993467;28;20077;-57
2020/12/16 12:34:02;;;;;;;29.80;20.50;;;16.80;63.50;;;;;;4991055;28;20046;-55
2020/12/16 12:36:28;;;;;;;26.30;18.17;;;16.70;62.00;;;;;;4990783;28;20046;-56
2020/12/16 12:39:13;;;;;;;29.23;20.42;;;16.70;64.20;;;;;;4979701;28;20042;-57
2020/12/16 12:41:39;;;;;;;28.63;21.15;;;16.80;63.20;;;;;;4994030;28;20048;-57
2020/12/16 12:44:05;;;;;;;25.65;19.02;;;16.70;63.00;;;;;;4996028;28;20038;-58
2020/12/16 12:46:31;;;;;;;26.10;19.88;;;16.70;63.70;;;;;;4998134;28;20165;-58
2020/12/16 12:48:57;;;;;;;24.95;18.20;;;16.70;62.10;;;;;;4990837;28;20042;-57
2020/12/16 12:51:23;;;;;;;24.02;19.25;;;16.80;63.60;;;;;;4994496;28;20045;-51
2020/12/16 12:53:50;;;;;;;23.13;16.70;;;16.90;62.10;;;;;;4988605;28;20096;-57